Time;durP1;ratioP1;P1;durP2;ratioP2;P2;SDS_P1;SDS_P2;PMS_P1;PMS_P2;Temp;Humidity;BMP_temperature;BMP_pressure;BME280_temperature;BME280_humidity;BME280_pressure;Samples;Min_cycle;Max_cycle;Signal;HPM_P1;HPM_P2
2022/12/04 00:01:28;;;;;;;56.43;26.50;;;;;;;-0.70;94.42;101736.28;5095282;28;20080;-82
2022/12/04 00:03:56;;;;;;;60.17;26.55;;;;;;;-0.70;94.47;101726.06;5101168;28;20092;-82
2022/12/04 00:06:22;;;;;;;57.58;27.08;;;;;;;-0.74;94.57;101730.16;5116040;28;20387;-82
2022/12/04 00:08:48;;;;;;;61.13;26.33;;;;;;;-0.73;94.29;101718.28;5115628;28;20369;-82
2022/12/04 00:11:17;;;;;;;56.97;26.67;;;;;;;-0.69;94.24;101722.72;5115877;28;20072;-82
2022/12/04 00:13:43;;;;;;;57.83;27.08;;;;;;;-0.69;93.84;101717.63;5116190;28;20031;-82
2022/12/04 00:16:12;;;;;;;58.08;25.33;;;;;;;-0.65;93.98;101717.84;5114729;28;20035;-83
2022/12/04 00:18:39;;;;;;;60.60;27.80;;;;;;;-0.68;93.92;101712.59;5116297;28;20028;-82
2022/12/04 00:21:22;;;;;;;56.13;26.08;;;;;;;-0.66;94.06;101713.53;5116100;28;20142;-82
2022/12/04 00:23:48;;;;;;;59.08;25.55;;;;;;;-0.68;93.83;101704.94;5115265;28;20028;-81
2022/12/04 00:26:19;;;;;;;57.80;26.50;;;;;;;-0.72;93.87;101713.25;5115981;28;20374;-82
2022/12/04 00:28:45;;;;;;;57.75;27.05;;;;;;;-0.73;94.32;101701.28;5115499;28;20024;-82
2022/12/04 00:31:16;;;;;;;61.88;26.73;;;;;;;-0.71;93.92;101709.03;5115905;28;20164;-82
2022/12/04 00:33:42;;;;;;;58.17;26.10;;;;;;;-0.74;94.13;101714.00;5115192;28;20026;-82
2022/12/04 00:36:10;;;;;;;57.40;26.90;;;;;;;-0.73;94.41;101716.59;5115032;28;20039;-82
2022/12/04 00:38:36;;;;;;;60.03;27.00;;;;;;;-0.73;94.44;101715.72;5115456;28;20125;-83
2022/12/04 00:41:02;;;;;;;56.20;26.25;;;;;;;-0.72;94.17;101710.69;5115837;28;20080;-82
2022/12/04 00:43:29;;;;;;;55.80;25.90;;;;;;;-0.69;94.39;101708.28;5115149;28;20020;-83
2022/12/04 00:46:10;;;;;;;51.67;24.08;;;;;;;-0.66;94.18;101710.09;5115122;28;20028;-83
2022/12/04 00:48:41;;;;;;;55.42;25.77;;;;;;;-0.70;94.28;101698.03;5114403;28;20036;-83
2022/12/04 00:51:15;;;;;;;56.17;26.17;;;;;;;-0.70;94.43;101692.94;5114653;28;20073;-82
2022/12/04 00:53:40;;;;;;;58.17;25.83;;;;;;;-0.66;94.17;101707.53;5115377;28;20019;-82
2022/12/04 00:56:23;;;;;;;56.03;26.00;;;;;;;-0.70;94.23;101698.03;5115189;28;20364;-82
2022/12/04 00:58:56;;;;;;;54.97;26.65;;;;;;;-0.71;94.35;101707.34;5114967;28;20026;-82
2022/12/04 01:01:22;;;;;;;58.22;26.65;;;;;;;-0.70;94.31;101705.69;5113981;28;20487;-82
2022/12/04 01:04:05;;;;;;;54.97;25.20;;;;;;;-0.69;94.68;101692.13;5114900;28;20020;-82
2022/12/04 01:06:33;;;;;;;59.70;27.23;;;;;;;-0.69;94.27;101703.19;5114958;28;20274;-82
2022/12/04 01:09:00;;;;;;;56.55;25.88;;;;;;;-0.70;94.59;101709.09;5111669;28;20426;-82
2022/12/04 01:11:28;;;;;;;54.28;25.08;;;;;;;-0.66;94.33;101707.53;5292531;22;20059;-82
2022/12/04 01:13:53;;;;;;;55.92;25.30;;;;;;;-0.66;94.20;101708.44;5094879;28;20028;-82
2022/12/04 01:16:24;;;;;;;56.63;25.75;;;;;;;-0.66;93.90;101716.09;5094178;28;20342;-83
2022/12/04 01:18:50;;;;;;;54.67;26.05;;;;;;;-0.64;94.45;101709.38;5093504;28;20047;-83
2022/12/04 01:21:16;;;;;;;61.03;28.50;;;;;;;-0.71;94.08;101714.13;5094192;28;20536;-81
2022/12/04 01:23:42;;;;;;;60.63;27.25;;;;;;;-0.71;94.37;101719.22;5094650;28;20044;-82
2022/12/04 01:26:08;;;;;;;58.83;27.40;;;;;;;-0.73;94.32;101721.69;5093440;28;20016;-82
2022/12/04 01:28:33;;;;;;;56.10;26.67;;;;;;;-0.73;94.79;101721.69;5094346;28;20028;-81
2022/12/04 01:31:05;;;;;;;57.30;26.95;;;;;;;-0.71;94.71;101715.00;5094063;28;20020;-82
2022/12/04 01:33:31;;;;;;;59.50;27.30;;;;;;;-0.69;94.70;101715.06;5093762;28;20395;-82
2022/12/04 01:35:58;;;;;;;56.47;27.05;;;;;;;-0.70;94.19;101721.84;5094409;28;20073;-82
2022/12/04 01:38:25;;;;;;;59.38;27.35;;;;;;;-0.68;94.64;101720.22;5094312;28;20036;-82
2022/12/04 01:40:50;;;;;;;55.75;26.58;;;;;;;-0.70;94.31;101716.75;5093080;28;20065;-81
2022/12/04 01:43:16;;;;;;;58.58;27.73;;;;;;;-0.70;94.14;101715.88;5093901;28;20024;-82
2022/12/04 01:45:48;;;;;;;56.10;26.95;;;;;;;-0.72;94.73;101710.69;5092789;28;20032;-82
2022/12/04 01:48:23;;;;;;;58.35;27.67;;;;;;;-0.74;94.63;101711.44;5093292;28;20111;-82
2022/12/04 01:50:52;;;;;;;57.97;26.83;;;;;;;-0.71;94.67;101709.03;5094300;28;20430;-82
2022/12/04 01:53:19;;;;;;;54.50;25.98;;;;;;;-0.70;94.61;101705.69;5093017;28;20020;-82
2022/12/04 01:55:45;;;;;;;54.53;26.27;;;;;;;-0.68;94.41;101697.28;5093851;28;20028;-82
2022/12/04 01:58:11;;;;;;;54.65;25.75;;;;;;;-0.65;94.20;101699.09;5093611;28;20106;-82
2022/12/04 02:00:37;;;;;;;50.08;23.63;;;;;;;-0.59;94.66;101699.38;5092636;28;20070;-82
2022/12/04 02:03:02;;;;;;;54.13;25.90;;;;;;;-0.59;94.26;101695.94;5093708;28;20047;-82
2022/12/04 02:05:27;;;;;;;56.60;27.50;;;;;;;-0.61;94.06;101693.34;5093652;28;20051;-82
2022/12/04 02:07:58;;;;;;;54.78;25.98;;;;;;;-0.63;93.87;101700.94;5092860;28;20026;-82
2022/12/04 02:10:36;;;;;;;57.08;26.80;;;;;;;-0.65;94.10;101704.19;5093222;28;20090;-82
2022/12/04 02:13:13;;;;;;;54.40;26.20;;;;;;;-0.64;93.95;101701.72;5093648;28;20115;-82
2022/12/04 02:15:47;;;;;;;55.67;26.70;;;;;;;-0.62;93.66;101702.66;5093225;28;20024;-82
2022/12/04 02:18:34;;;;;;;58.75;27.35;;;;;;;-0.70;93.87;101696.34;5093336;28;20085;-82
2022/12/04 02:21:08;;;;;;;55.58;26.73;;;;;;;-0.70;94.27;101696.34;5093760;28;20032;-83
2022/12/04 02:23:58;;;;;;;53.65;25.27;;;;;;;-0.64;94.18;101696.63;5092771;28;20468;-83
2022/12/04 02:26:40;;;;;;;53.63;25.17;;;;;;;-0.63;94.33;101694.94;5093218;28;20111;-82
2022/12/04 02:29:20;;;;;;;53.08;25.70;;;;;;;-0.61;93.93;101695.88;5078001;28;20039;-82
2022/12/04 02:31:55;;;;;;;58.72;28.48;;;;;;;-0.68;94.11;101701.53;5067850;28;20055;-82
2022/12/04 02:34:58;;;;;;;58.97;28.13;;;;;;;-0.70;94.22;101698.03;5072738;28;20029;-82
2022/12/04 02:37:30;;;;;;;55.33;25.88;;;;;;;-0.68;94.22;101691.34;5072340;28;20050;-82
2022/12/04 02:40:07;;;;;;;59.00;27.30;;;;;;;-0.71;94.44;101696.28;5092958;28;20020;-82
2022/12/04 02:42:42;;;;;;;57.67;26.58;;;;;;;-0.65;94.05;101694.00;5092503;28;20032;-82
2022/12/04 02:45:15;;;;;;;56.63;26.60;;;;;;;-0.70;94.23;101696.34;5092716;28;20028;-82
2022/12/04 02:47:43;;;;;;;56.53;27.70;;;;;;;-0.68;94.45;101698.97;5092980;28;20036;-82
2022/12/04 02:50:12;;;;;;;59.97;28.83;;;;;;;-0.70;94.01;101692.94;5092007;28;20099;-82
2022/12/04 02:52:46;;;;;;;57.80;27.92;;;;;;;-0.70;94.09;101683.59;5093101;28;20115;-82
2022/12/04 02:55:21;;;;;;;62.10;28.80;;;;;;;-0.73;94.12;101692.78;5091183;28;20034;-82
2022/12/04 02:57:50;;;;;;;56.05;27.17;;;;;;;-0.69;94.23;101676.84;5090065;28;20012;-82
2022/12/04 03:00:17;;;;;;;55.30;26.58;;;;;;;-0.69;94.47;101687.91;5092613;28;20107;-82
2022/12/04 03:02:48;;;;;;;57.35;28.08;;;;;;;-0.70;94.28;101672.53;5093093;28;20032;-82
2022/12/04 03:05:18;;;;;;;61.97;30.25;;;;;;;-0.73;94.05;101680.91;5091720;28;20039;-82
2022/12/04 03:07:55;;;;;;;63.88;30.35;;;;;;;-0.78;94.64;101678.16;5092405;28;20503;-82
2022/12/04 03:10:26;;;;;;;59.58;29.10;;;;;;;-0.73;94.42;101674.94;5092517;28;20040;-82
2022/12/04 03:12:57;;;;;;;59.42;29.02;;;;;;;-0.75;94.59;101674.88;5092583;28;20036;-82
2022/12/04 03:15:30;;;;;;;60.00;29.15;;;;;;;-0.72;94.23;101676.69;5107702;22;20048;-83
2022/12/04 03:17:59;;;;;;;59.20;28.77;;;;;;;-0.70;94.47;101690.38;5091643;28;20590;-82
2022/12/04 03:20:25;;;;;;;58.80;28.23;;;;;;;-0.69;94.33;101687.03;5092482;28;20024;-82
2022/12/04 03:22:57;;;;;;;57.40;28.00;;;;;;;-0.70;94.05;101683.59;5092642;28;20020;-81
2022/12/04 03:25:30;;;;;;;57.30;28.10;;;;;;;-0.68;94.25;101683.69;5091790;28;20028;-82
2022/12/04 03:28:03;;;;;;;58.42;27.50;;;;;;;-0.67;94.11;101677.75;5072790;28;20028;-83
2022/12/04 03:30:38;;;;;;;56.38;27.50;;;;;;;-0.66;93.97;101676.94;5072981;28;20032;-82
2022/12/04 03:33:14;;;;;;;58.40;27.80;;;;;;;-0.64;94.31;101672.78;5071682;28;20025;-82
2022/12/04 03:35:48;;;;;;;57.80;28.55;;;;;;;-0.66;94.23;101666.75;5072218;28;20027;-82
2022/12/04 03:38:34;;;;;;;57.35;27.90;;;;;;;-0.63;93.90;101666.91;5072593;28;20476;-82
2022/12/04 03:41:10;;;;;;;60.10;28.85;;;;;;;-0.64;93.97;101667.69;5072691;28;20107;-83
2022/12/04 03:43:48;;;;;;;58.10;28.10;;;;;;;-0.65;93.84;101674.50;5072036;28;20388;-82
2022/12/04 03:46:23;;;;;;;57.85;26.92;;;;;;;-0.65;94.09;101671.06;5071535;28;20027;-82
2022/12/04 03:49:14;;;;;;;59.55;28.40;;;;;;;-0.73;94.72;101667.28;5072706;28;20033;-83
2022/12/04 03:51:46;;;;;;;60.50;29.63;;;;;;;-0.72;94.44;101659.72;5071993;28;20073;-82
2022/12/04 03:54:28;;;;;;;57.00;27.35;;;;;;;-0.67;94.24;101662.47;5076662;28;20036;-82
2022/12/04 03:56:59;;;;;;;61.00;29.20;;;;;;;-0.69;94.19;101661.53;5092445;28;20035;-82
2022/12/04 03:59:38;;;;;;;57.88;27.98;;;;;;;-0.68;94.53;101660.75;5092376;28;20028;-82
2022/12/04 04:02:09;;;;;;;57.40;28.23;;;;;;;-0.66;94.54;101664.19;5089724;28;20476;-83
2022/12/04 04:04:37;;;;;;;61.00;28.58;;;;;;;-0.69;94.06;101659.84;5092335;28;20024;-82
2022/12/04 04:07:18;;;;;;;60.80;29.15;;;;;;;-0.70;94.12;101672.53;5091147;28;20099;-82
2022/12/04 04:09:47;;;;;;;60.85;29.35;;;;;;;-0.67;94.04;101663.34;5095223;28;20465;-82
2022/12/04 04:12:19;;;;;;;57.50;27.08;;;;;;;-0.65;94.40;101648.09;5095363;28;20541;-82
2022/12/04 04:26:03;;;;;;;58.58;28.55;;;;;;;-0.68;94.19;101668.38;5096251;28;20437;-82
2022/12/04 04:28:40;;;;;;;58.45;28.63;;;;;;;-0.66;94.12;101665.09;5095017;28;20483;-82
2022/12/04 04:31:20;;;;;;;;;;;;;;;-0.63;94.18;101661.78;5096140;28;20028;-82
2022/12/04 04:34:19;;;;;;;55.38;26.33;;;;;;;-0.62;94.20;101648.25;5095545;28;19972;-83
2022/12/04 04:37:05;;;;;;;58.13;28.15;;;;;;;-0.60;93.98;101655.94;5057324;28;20044;-82
2022/12/04 04:39:43;;;;;;;57.23;26.73;;;;;;;-0.63;93.95;101660.13;5095587;28;20085;-82
2022/12/04 04:42:22;;;;;;;60.83;29.02;;;;;;;-0.60;94.35;101654.28;5094306;28;20040;-83
2022/12/04 04:45:17;;;;;;;59.33;28.33;;;;;;;-0.61;94.12;101657.63;5095509;28;20032;-82
2022/12/04 04:48:04;;;;;;;59.67;28.73;;;;;;;-0.64;93.86;101668.59;5085907;28;20039;-82
2022/12/04 04:50:31;;;;;;;58.75;28.05;;;;;;;-0.63;94.30;101667.78;5094295;28;20392;-82
2022/12/04 04:53:02;;;;;;;56.30;29.27;;;;;;;-0.61;94.08;101657.63;5095480;28;20038;-82
2022/12/04 04:55:33;;;;;;;60.03;29.20;;;;;;;-0.64;94.40;101668.59;5095266;28;20027;-82
2022/12/04 04:58:10;;;;;;;57.35;27.92;;;;;;;-0.61;94.40;101657.63;5094303;28;20024;-82
2022/12/04 05:00:36;;;;;;;62.13;28.27;;;;;;;-0.60;94.05;101661.06;5094842;28;20020;-83
2022/12/04 05:03:02;;;;;;;55.67;27.55;;;;;;;-0.58;93.86;101665.44;5094193;28;20038;-82
2022/12/04 05:05:27;;;;;;;57.42;28.40;;;;;;;-0.59;94.08;101665.34;5094886;28;20103;-82
2022/12/04 05:07:52;;;;;;;56.15;27.27;;;;;;;-0.58;94.07;101674.75;5094834;28;20108;-82
2022/12/04 05:10:17;;;;;;;57.55;27.92;;;;;;;-0.58;93.95;101670.53;5093954;28;20543;-82
2022/12/04 05:12:43;;;;;;;57.15;27.90;;;;;;;-0.60;94.02;101667.03;5095136;28;20031;-82
2022/12/04 05:15:08;;;;;;;57.85;28.30;;;;;;;-0.57;94.32;101666.28;5094337;28;20487;-82
2022/12/04 05:17:35;;;;;;;57.38;28.25;;;;;;;-0.58;94.53;101667.09;5093859;28;20028;-82
2022/12/04 05:20:01;;;;;;;56.55;26.83;;;;;;;-0.56;94.48;101665.50;5094941;28;20024;-82
2022/12/04 05:22:30;;;;;;;56.20;27.00;;;;;;;-0.55;94.49;101673.19;5094420;28;20028;-82
2022/12/04 05:24:56;;;;;;;59.88;28.80;;;;;;;-0.60;94.39;101671.25;5093639;28;20020;-82
2022/12/04 05:27:21;;;;;;;57.15;27.80;;;;;;;-0.57;94.32;101667.19;5074335;28;20108;-82
2022/12/04 05:29:47;;;;;;;57.05;28.10;;;;;;;-0.58;93.98;101662.00;5087494;28;20024;-82
2022/12/04 05:32:13;;;;;;;57.05;28.05;;;;;;;-0.55;94.56;101665.53;5093574;28;20471;-82
2022/12/04 05:34:38;;;;;;;58.25;29.08;;;;;;;-0.56;94.31;101673.13;5094482;28;20085;-81
2022/12/04 05:37:03;;;;;;;59.72;28.42;;;;;;;-0.63;94.60;101669.44;5094074;28;20016;-81
2022/12/04 05:39:29;;;;;;;59.05;28.67;;;;;;;-0.61;94.55;101665.28;5093564;28;20027;-82
2022/12/04 05:41:54;;;;;;;60.15;29.33;;;;;;;-0.64;94.65;101670.25;5094155;28;20055;-82
2022/12/04 05:44:19;;;;;;;58.47;28.20;;;;;;;-0.64;94.51;101666.03;5093724;28;20387;-82
2022/12/04 05:46:45;;;;;;;59.25;29.20;;;;;;;-0.63;95.04;101657.59;5093026;28;20141;-81
2022/12/04 05:49:10;;;;;;;60.30;29.48;;;;;;;-0.64;94.76;101655.84;5093752;28;20081;-81
2022/12/04 05:51:35;;;;;;;60.95;29.70;;;;;;;-0.63;94.36;101651.59;5094323;28;20447;-81
2022/12/04 05:54:00;;;;;;;57.17;29.02;;;;;;;-0.62;94.67;101648.25;5093301;28;20020;-81
2022/12/04 05:56:27;;;;;;;59.05;28.45;;;;;;;-0.61;94.50;101650.00;5093666;28;20103;-81
2022/12/04 05:58:52;;;;;;;57.55;28.48;;;;;;;-0.61;95.05;101650.00;5093988;28;20050;-82
2022/12/04 06:01:23;;;;;;;59.25;28.73;;;;;;;-0.59;95.29;101644.94;5092787;28;20060;-81
2022/12/04 06:03:49;;;;;;;62.58;29.40;;;;;;;-0.63;94.68;101644.84;5093978;28;20479;-81
2022/12/04 06:06:17;;;;;;;60.30;28.20;;;;;;;-0.60;94.91;101646.63;5093246;28;20024;-81
2022/12/04 06:08:42;;;;;;;58.15;27.45;;;;;;;-0.55;94.94;101645.16;5093987;28;20069;-82
2022/12/04 06:11:18;;;;;;;58.47;28.48;;;;;;;-0.58;94.91;101639.94;5093493;28;20032;-82
2022/12/04 06:13:44;;;;;;;59.60;28.25;;;;;;;-0.60;94.98;101646.63;5093006;28;20024;-82
2022/12/04 06:16:24;;;;;;;57.25;28.13;;;;;;;-0.58;94.81;101637.38;5092839;28;20047;-82
2022/12/04 06:19:01;;;;;;;57.53;28.00;;;;;;;-0.53;94.69;101642.69;5093534;28;20052;-82
2022/12/04 06:21:29;;;;;;;57.78;28.45;;;;;;;-0.54;94.96;101643.47;5124406;22;20060;-82
2022/12/04 06:23:55;;;;;;;57.33;26.70;;;;;;;-0.54;94.86;101646.91;5053361;28;20025;-82
2022/12/04 06:26:21;;;;;;;58.60;28.15;;;;;;;-0.55;95.06;101645.16;5052843;28;20052;-82
2022/12/04 06:28:47;;;;;;;58.63;28.83;;;;;;;-0.56;95.00;101642.53;5052651;28;20032;-82
2022/12/04 06:31:14;;;;;;;61.53;28.77;;;;;;;-0.55;94.89;101646.84;5052450;28;20108;-82
2022/12/04 06:33:40;;;;;;;58.78;28.38;;;;;;;-0.52;94.99;101650.38;5053380;28;20024;-82
2022/12/04 06:36:09;;;;;;;55.55;26.77;;;;;;;-0.50;95.13;101645.34;5051791;28;20386;-81
2022/12/04 06:38:35;;;;;;;57.58;28.60;;;;;;;-0.51;94.78;101648.72;5053048;28;20021;-82
2022/12/04 06:41:05;;;;;;;60.33;28.67;;;;;;;-0.53;94.87;101655.44;5052788;28;20021;-82
2022/12/04 06:43:30;;;;;;;59.45;28.77;;;;;;;-0.53;95.03;101651.19;5052536;28;20116;-82
2022/12/04 06:46:09;;;;;;;61.33;30.98;;;;;;;-0.55;95.17;101652.78;5053054;28;20109;-82
2022/12/04 06:48:35;;;;;;;56.42;27.13;;;;;;;-0.51;94.85;101651.28;5052318;28;20478;-81
2022/12/04 06:51:03;;;;;;;57.33;27.80;;;;;;;-0.48;94.94;101652.28;5052657;28;20034;-82
2022/12/04 06:53:29;;;;;;;56.97;28.65;;;;;;;-0.53;94.82;101652.88;5052737;28;20363;-82
2022/12/04 06:55:57;;;;;;;53.83;27.88;;;;;;;-0.51;95.20;101653.81;5052372;28;20029;-82
2022/12/04 06:58:22;;;;;;;57.97;29.17;;;;;;;-0.55;94.96;101655.34;5052452;28;20032;-82
2022/12/04 07:00:48;;;;;;;56.03;27.73;;;;;;;-0.52;95.07;101660.59;5052741;28;20029;-82
2022/12/04 07:03:13;;;;;;;57.25;27.98;;;;;;;-0.51;95.20;101664.88;5051873;28;20432;-82
2022/12/04 07:05:38;;;;;;;58.10;28.63;;;;;;;-0.53;94.95;101663.94;5052625;28;20027;-82
2022/12/04 07:08:04;;;;;;;56.97;27.70;;;;;;;-0.56;95.08;101663.78;5052567;28;20036;-84
2022/12/04 07:10:29;;;;;;;55.85;27.70;;;;;;;-0.49;94.86;101663.28;5052196;28;20131;-83
2022/12/04 07:12:54;;;;;;;55.40;27.02;;;;;;;-0.52;94.93;101670.78;5053505;28;20477;-82
2022/12/04 07:15:19;;;;;;;53.65;26.90;;;;;;;-0.52;94.63;101677.59;5052150;28;20021;-82
2022/12/04 07:17:45;;;;;;;56.05;28.08;;;;;;;-0.52;94.70;101675.88;5051700;28;20020;-81
2022/12/04 07:20:11;;;;;;;53.17;26.08;;;;;;;-0.49;94.98;101673.47;5051867;28;20481;-82
2022/12/04 07:22:36;;;;;;;52.80;25.65;;;;;;;-0.48;94.56;101684.53;5065869;28;20044;-81
2022/12/04 07:25:01;;;;;;;55.78;27.30;;;;;;;-0.49;94.99;101680.25;5072123;28;20020;-82
2022/12/04 07:27:29;;;;;;;55.28;27.00;;;;;;;-0.51;94.59;101697.19;5071854;28;20468;-82
2022/12/04 07:29:54;;;;;;;55.05;27.60;;;;;;;-0.52;95.06;101691.19;5072864;28;20081;-82
2022/12/04 07:32:20;;;;;;;52.03;25.73;;;;;;;-0.50;94.87;101691.25;5058152;28;20029;-82
2022/12/04 07:34:45;;;;;;;53.85;27.15;;;;;;;-0.53;94.66;101691.13;5052280;28;20377;-82
2022/12/04 07:37:10;;;;;;;51.47;26.40;;;;;;;-0.52;95.19;101697.97;5052313;28;20029;-82
2022/12/04 07:39:36;;;;;;;51.42;26.58;;;;;;;-0.55;94.86;101691.03;5051958;28;20116;-82
2022/12/04 07:42:01;;;;;;;51.33;25.17;;;;;;;-0.49;95.13;101693.00;5053523;28;20051;-82
2022/12/04 07:44:29;;;;;;;52.10;26.60;;;;;;;-0.50;94.85;101684.47;5054871;28;20032;-82
2022/12/04 07:46:55;;;;;;;53.97;27.30;;;;;;;-0.52;94.92;101690.31;5055074;28;20029;-81
2022/12/04 07:49:20;;;;;;;51.03;26.02;;;;;;;-0.50;94.79;101692.13;5055262;28;20025;-82
2022/12/04 07:51:45;;;;;;;48.72;25.10;;;;;;;-0.48;94.56;101687.97;5054825;28;20424;-81
2022/12/04 07:54:17;;;;;;;52.22;26.75;;;;;;;-0.50;95.08;101693.78;5050905;28;20040;-86
2022/12/04 07:56:42;;;;;;;48.97;24.30;;;;;;;-0.50;94.68;101689.59;5055646;28;20017;-85
2022/12/04 07:59:07;;;;;;;48.85;24.52;;;;;;;-0.47;94.70;101697.38;5055135;28;20457;-83
2022/12/04 08:01:36;;;;;;;45.42;23.23;;;;;;;-0.41;94.83;101693.34;5055694;28;20533;-84
2022/12/04 08:04:02;;;;;;;46.30;22.60;;;;;;;-0.42;94.58;101696.69;5054915;28;20041;-85
2022/12/04 08:06:28;;;;;;;49.05;24.83;;;;;;;-0.43;94.89;101703.47;5054912;28;20079;-84
2022/12/04 08:08:58;;;;;;;47.78;24.20;;;;;;;-0.45;94.53;101707.63;5055877;28;20420;-84
2022/12/04 08:11:26;;;;;;;47.13;24.42;;;;;;;-0.43;94.76;101702.59;5055956;28;20128;-87
2022/12/04 08:14:02;;;;;;;47.55;24.80;;;;;;;-0.48;94.45;101703.28;5055484;28;20432;-87
2022/12/04 08:16:30;;;;;;;48.45;24.02;;;;;;;-0.45;94.71;101712.72;5055591;28;20499;-84
2022/12/04 08:18:56;;;;;;;46.92;23.60;;;;;;;-0.42;94.94;101706.88;5055646;28;20028;-83
2022/12/04 08:21:23;;;;;;;45.58;22.25;;;;;;;-0.40;94.84;101707.84;5054011;28;20090;-85
2022/12/04 08:23:50;;;;;;;45.47;22.75;;;;;;;-0.39;94.51;101709.59;5055418;28;20029;-82
2022/12/04 08:26:32;;;;;;;47.58;23.02;;;;;;;-0.34;94.52;101705.56;5055312;28;20025;-82
2022/12/04 08:28:58;;;;;;;44.15;22.35;;;;;;;-0.32;94.87;101719.22;5055054;28;20041;-82
2022/12/04 08:31:25;;;;;;;46.72;23.45;;;;;;;-0.38;94.30;101709.63;5055045;28;20064;-82
2022/12/04 08:34:10;;;;;;;47.22;24.45;;;;;;;-0.37;94.51;101715.63;5056771;28;20112;-81
2022/12/04 08:36:36;;;;;;;44.47;22.35;;;;;;;-0.36;94.26;101708.03;5054507;28;20013;-81
2022/12/04 08:39:01;;;;;;;44.72;22.20;;;;;;;-0.32;94.35;101703.94;5055123;28;20362;-81
2022/12/04 08:41:27;;;;;;;44.42;23.27;;;;;;;-0.28;94.12;101708.38;5054373;28;20071;-81
2022/12/04 08:43:54;;;;;;;43.38;22.20;;;;;;;-0.24;94.22;101710.25;5055212;28;20545;-82
2022/12/04 08:46:19;;;;;;;;;;;;;;;-0.25;93.95;101705.06;5054980;28;20032;-81
2022/12/04 08:48:45;;;;;;;45.30;21.80;;;;;;;-0.25;93.90;101705.06;5054453;28;20278;-81
2022/12/04 08:51:16;;;;;;;46.35;22.85;;;;;;;-0.27;93.94;101706.66;5055131;28;20021;-82
2022/12/04 08:53:41;;;;;;;45.85;22.38;;;;;;;-0.27;93.98;101697.34;5054479;28;20017;-81
2022/12/04 08:56:07;;;;;;;44.17;22.35;;;;;;;-0.24;94.02;101696.59;5053752;28;20033;-81
2022/12/04 08:58:33;;;;;;;42.45;21.95;;;;;;;-0.24;93.82;101694.94;5054996;28;20462;-82
2022/12/04 09:01:06;;;;;;;43.17;21.80;;;;;;;-0.21;93.51;101699.31;5054993;28;20028;-82
2022/12/04 09:03:32;;;;;;;43.17;22.75;;;;;;;-0.21;93.67;101695.06;5054285;28;20028;-82
2022/12/04 09:06:03;;;;;;;44.10;23.23;;;;;;;-0.21;93.80;101692.50;5054985;28;20043;-81
2022/12/04 09:08:29;;;;;;;46.15;24.00;;;;;;;-0.20;94.00;101696.81;5054815;28;20029;-82
2022/12/04 09:10:54;;;;;;;47.03;23.52;;;;;;;-0.17;93.78;101699.50;5055603;28;20021;-82
2022/12/04 09:13:19;;;;;;;44.75;22.27;;;;;;;-0.14;93.60;101696.19;5073059;28;20370;-82
2022/12/04 09:15:45;;;;;;;42.25;22.63;;;;;;;-0.12;93.51;101701.38;5074791;28;20510;-82
2022/12/04 09:18:11;;;;;;;43.92;22.38;;;;;;;-0.12;93.46;101697.13;5073925;28;20130;-82
2022/12/04 09:20:36;;;;;;;43.60;22.33;;;;;;;-0.06;93.45;101704.19;5074543;28;20037;-82
2022/12/04 09:23:11;;;;;;;44.10;22.48;;;;;;;-0.05;93.28;101694.03;5074297;28;20499;-81
2022/12/04 09:25:36;;;;;;;39.40;19.77;;;;;;;-0.02;92.63;101698.41;5074479;28;20016;-82
2022/12/04 09:28:03;;;;;;;42.72;21.90;;;;;;;-0.05;92.52;101705.91;5074443;28;20115;-82
2022/12/04 09:30:55;;;;;;;40.13;20.50;;;;;;;-0.04;92.31;101720.44;5073492;28;20033;-82
2022/12/04 09:33:20;;;;;;;42.50;21.55;;;;;;;-0.08;92.36;101718.53;5074219;28;20036;-81
2022/12/04 09:35:46;;;;;;;42.22;21.33;;;;;;;-0.04;91.94;101715.31;5073890;28;20025;-83
2022/12/04 09:41:21;;;;;;;41.88;20.90;;;;;;;0.01;92.70;101720.63;5070037;22;20053;-82
2022/12/04 09:44:01;;;;;;;40.65;20.67;;;;;;;-0.04;92.38;101715.31;5029982;28;20040;-81
2022/12/04 09:46:44;;;;;;;40.10;20.00;;;;;;;-0.04;92.30;101708.53;5067388;28;20032;-82
2022/12/04 09:49:19;;;;;;;40.90;19.63;;;;;;;-0.02;91.82;101713.72;5056469;28;20032;-82
2022/12/04 09:51:46;;;;;;;36.70;18.75;;;;;;;-0.03;91.64;101712.81;5053354;28;20036;-81
2022/12/04 09:54:37;;;;;;;37.88;18.50;;;;;;;-0.01;91.70;101713.78;5053585;28;20476;-81
2022/12/04 09:57:27;;;;;;;37.38;18.02;;;;;;;-0.07;90.99;101704.97;5070160;28;20060;-81
2022/12/04 09:59:53;;;;;;;34.08;16.83;;;;;;;-0.11;90.10;101713.34;5071485;28;20103;-82
2022/12/04 10:02:34;;;;;;;35.77;17.33;;;;;;;-0.09;90.31;101712.59;5072063;28;20078;-82
2022/12/04 10:04:59;;;;;;;35.30;17.58;;;;;;;-0.06;90.42;101719.50;5073554;28;20031;-82
2022/12/04 10:07:44;;;;;;;36.58;17.98;;;;;;;-0.09;90.54;101721.91;5071942;28;20404;-81
2022/12/04 10:10:25;;;;;;;35.65;17.50;;;;;;;-0.12;90.81;101717.56;5073546;28;20025;-81
2022/12/04 10:13:09;;;;;;;36.00;17.13;;;;;;;-0.08;90.73;101718.53;5057507;28;20485;-81
2022/12/04 10:16:10;;;;;;;35.03;17.45;;;;;;;-0.07;91.13;101717.75;5053651;28;20036;-81
2022/12/04 10:18:54;;;;;;;34.42;17.13;;;;;;;-0.11;90.65;101724.41;5053013;28;20029;-81
2022/12/04 10:21:31;;;;;;;36.70;17.77;;;;;;;-0.18;90.69;101710.50;5052742;28;20431;-82
2022/12/04 10:24:12;;;;;;;35.05;17.25;;;;;;;-0.12;91.31;101702.25;5053395;28;20462;-81
2022/12/04 10:26:44;;;;;;;37.95;19.25;;;;;;;-0.18;90.60;101717.31;5052910;28;20432;-81
2022/12/04 10:29:21;;;;;;;35.92;18.38;;;;;;;-0.19;90.55;101708.75;5053183;28;20024;-80
2022/12/04 10:31:50;;;;;;;35.38;18.27;;;;;;;-0.16;91.03;101708.00;5053524;28;20440;-81
2022/12/04 10:34:21;;;;;;;35.22;17.65;;;;;;;-0.22;90.74;101708.63;5051911;28;20078;-81
2022/12/04 10:36:57;;;;;;;34.28;17.00;;;;;;;-0.16;91.29;101706.34;5053218;28;20025;-82
2022/12/04 10:39:36;;;;;;;35.33;17.40;;;;;;;-0.20;91.22;101708.69;5054654;28;20045;-81
2022/12/04 10:42:24;;;;;;;37.28;18.80;;;;;;;-0.27;90.96;101712.66;5072254;28;20032;-81
2022/12/04 10:44:50;;;;;;;37.20;18.15;;;;;;;-0.21;91.27;101717.16;5072881;28;20085;-81
2022/12/04 10:47:16;;;;;;;34.42;18.25;;;;;;;-0.22;91.79;101717.97;5072638;28;20434;-81
2022/12/04 10:49:41;;;;;;;34.30;17.58;;;;;;;-0.23;91.52;101714.56;5072102;28;20104;-80
2022/12/04 10:52:10;;;;;;;34.25;18.02;;;;;;;-0.21;91.27;101712.91;5072553;28;20479;-81
2022/12/04 10:54:50;;;;;;;33.03;17.63;;;;;;;-0.20;91.37;101712.13;5072343;28;20071;-80
2022/12/04 10:57:16;;;;;;;35.00;18.40;;;;;;;-0.18;91.11;101707.94;5067701;28;20021;-81
2022/12/04 10:59:53;;;;;;;35.67;19.13;;;;;;;-0.18;91.51;101707.09;5072722;28;20024;-80
2022/12/04 11:02:21;;;;;;;;;;;;;;;-0.23;91.31;101704.34;5072666;28;20028;-81
2022/12/04 11:04:58;;;;;;;35.60;17.58;;;;;;;-0.19;91.94;101690.91;5073207;28;19913;-81
2022/12/04 11:07:30;;;;;;;33.90;16.77;;;;;;;-0.16;91.50;101693.59;5072751;28;20032;-81
2022/12/04 11:10:02;;;;;;;36.05;18.35;;;;;;;-0.15;91.21;101697.00;5065342;28;20473;-81
2022/12/04 11:12:28;;;;;;;34.25;17.95;;;;;;;-0.13;91.59;101689.44;5052553;28;20060;-81
2022/12/04 11:15:05;;;;;;;36.53;18.65;;;;;;;-0.16;91.26;101693.59;5052580;28;20029;-82
2022/12/04 11:17:30;;;;;;;35.80;18.15;;;;;;;-0.13;91.75;101684.31;5053274;28;20029;-81
2022/12/04 11:20:01;;;;;;;33.25;17.23;;;;;;;-0.07;91.68;101682.91;5056798;28;20370;-82
2022/12/04 11:22:26;;;;;;;35.33;18.15;;;;;;;-0.08;91.56;101675.16;5056645;28;20040;-81
2022/12/04 11:24:57;;;;;;;35.40;18.02;;;;;;;-0.12;91.48;101676.72;5055866;28;20096;-82
2022/12/04 11:27:33;;;;;;;35.15;18.02;;;;;;;-0.11;91.72;101667.41;5056554;28;20056;-81
2022/12/04 11:30:13;;;;;;;35.67;18.30;;;;;;;-0.11;92.08;101673.38;5055753;28;20086;-81
2022/12/04 11:32:40;;;;;;;34.22;17.58;;;;;;;-0.06;92.34;101665.91;5056350;28;20392;-82
2022/12/04 11:35:14;;;;;;;34.92;18.45;;;;;;;-0.05;92.09;101665.09;5056450;28;20229;-81
2022/12/04 11:37:39;;;;;;;33.67;17.80;;;;;;;-0.03;92.01;101669.44;5060023;28;20024;-81
2022/12/04 11:40:15;;;;;;;34.70;18.45;;;;;;;0.02;91.84;101671.31;5075592;28;20093;-81